John Quigg — WDB9828 — position and weather

sailwx.info

Track history (hours):
 
Tides and Currents Weather Stations Pressure Air Temp Water Temp Dewpoint Dewpoint Depression Visibility Wind Speed Wind Dir Waves Ship Positions

John Quigg

Owner: Harley Marine Services, Inc, Seattle, WA. More information available from US FCC via Universal Licensing System and Coast Guard Vessel Documentation Center.

Last reported at 2018-Feb-25 11:30 UTC. Time now 2018-Feb-25 11:34 UTC.
Position N 33°44' W 118°16'.

Length 27 m.

MMSI: 365934954.

Date/timePositionNaut miles runAvg speedWind from/ knotsBaromVisibWave heightAir tempDewpointWater temp
2018-Feb-25 11:30N 33°44' W 118°16'0 0.0
2018-Feb-25 11:00N 33°44' W 118°16'0 0.0
2018-Feb-25 10:30N 33°44' W 118°16'0 0.0
2018-Feb-25 10:00N 33°44' W 118°16'0 0.0
2018-Feb-25 09:30N 33°44' W 118°16'0 0.0
2018-Feb-25 09:00N 33°44' W 118°16'0 0.0
2018-Feb-25 08:30N 33°44' W 118°16'0 0.0
2018-Feb-25 08:00N 33°44' W 118°16'0 0.0
2018-Feb-25 07:30N 33°44' W 118°16'0 0.0
2018-Feb-25 07:00N 33°44' W 118°16'0 0.0
2018-Feb-25 06:30N 33°44' W 118°16'0 0.0
2018-Feb-25 06:00N 33°44' W 118°16'0 0.0
2018-Feb-25 05:30N 33°44' W 118°16'0 0.0
2018-Feb-25 05:00N 33°44' W 118°16'0 0.0
2018-Feb-25 04:30N 33°44' W 118°16'0 0.0
2018-Feb-25 04:00N 33°44' W 118°16'0 0.0
2018-Feb-25 03:30N 33°44' W 118°16'0 0.0
2018-Feb-25 03:00N 33°44' W 118°16'0 0.0
2018-Feb-25 02:30N 33°44' W 118°16'0 0.0
2018-Feb-25 02:00N 33°44' W 118°16'0 0.0
2018-Feb-25 01:30N 33°44' W 118°16'0 0.0
2018-Feb-25 01:00N 33°44' W 118°16'0 0.0
2018-Feb-25 00:30N 33°44' W 118°16'0 0.0
2018-Feb-25 00:00N 33°44' W 118°16'0 0.0
2018-Feb-24 23:30N 33°44' W 118°16'0 0.0
2018-Feb-24 23:00N 33°44' W 118°16'0 0.0
2018-Feb-24 22:30N 33°44' W 118°16'0 0.0
2018-Feb-24 22:00N 33°44' W 118°16'0 0.0
2018-Feb-24 21:30N 33°44' W 118°16'0 0.0
2018-Feb-24 21:00N 33°44' W 118°16'0 0.0
2018-Feb-24 20:30N 33°44' W 118°16'0 0.0
2018-Feb-24 20:00N 33°44' W 118°16'0 0.0
2018-Feb-24 19:30N 33°44' W 118°16'0 0.0
2018-Feb-24 19:00N 33°44' W 118°16'0 0.0
2018-Feb-24 18:30N 33°44' W 118°16'1 3.0
2018-Feb-24 18:00N 33°43' W 118°14'4 7.8
2018-Feb-24 17:30N 33°44' W 118°10'2 5.0
2018-Feb-24 17:00N 33°43' W 118°13'3 5.4
2018-Feb-24 16:30N 33°44' W 118°16'0 0.4
2018-Feb-24 16:00N 33°44' W 118°16'2 3.6
2018-Feb-24 15:30N 33°45' W 118°16'1 2.7
2018-Feb-24 15:00N 33°46' W 118°14'0 0.5
2018-Feb-24 14:30N 33°46' W 118°14'2 3.0
2018-Feb-24 13:41N 33°44' W 118°12'1 7.9
2018-Feb-24 13:29N 33°45' W 118°13'1 1.1
2018-Feb-24 12:50N 33°46' W 118°13'0 0.1
2018-Feb-24 12:29N 33°46' W 118°13'0 0.1
2018-Feb-24 11:50N 33°46' W 118°13'3 7.2
2018-Feb-24 11:25N 33°43' W 118°14'2 3.8
2018-Feb-24 11:00N 33°44' W 118°16'0 0.0
2018-Feb-24 10:30N 33°44' W 118°16'0 0.0
2018-Feb-24 10:00N 33°44' W 118°16'0 0.0
2018-Feb-24 09:30N 33°44' W 118°16'0 0.0
2018-Feb-24 09:00N 33°44' W 118°16'0 0.0
2018-Feb-24 08:30N 33°44' W 118°16'0 0.0
2018-Feb-24 08:00N 33°44' W 118°16'0 0.0
2018-Feb-24 07:30N 33°44' W 118°16'0 0.0
2018-Feb-24 07:00N 33°44' W 118°16'0 0.0
2018-Feb-24 06:30N 33°44' W 118°16'0 0.0
2018-Feb-24 06:00N 33°44' W 118°16'0 0.0
2018-Feb-24 05:30N 33°44' W 118°16'0 0.0
2018-Feb-24 05:00N 33°44' W 118°16'0 0.0
2018-Feb-24 04:30N 33°44' W 118°16'0 0.0
2018-Feb-24 04:00N 33°44' W 118°16'0 0.0
2018-Feb-24 03:30N 33°44' W 118°16'0 0.0
2018-Feb-24 03:00N 33°44' W 118°16'4 3.7
2018-Feb-24 02:02N 33°44' W 118°11'0 0.6
2018-Feb-24 01:57N 33°44' W 118°12'1 1.3
2018-Feb-24 01:30N 33°44' W 118°11'4 8.1
2018-Feb-24 01:01N 33°44' W 118°16'0 0.2
2018-Feb-24 00:30N 33°44' W 118°16'0 0.0
2018-Feb-24 00:00N 33°44' W 118°16'0 0.0
2018-Feb-23 23:30N 33°44' W 118°16'1 1.6
2018-Feb-23 23:00N 33°43' W 118°16'5 9.4
2018-Feb-23 22:30N 33°44' W 118°10'1 2.6
2018-Feb-23 22:00N 33°44' W 118°12'3 5.7
2018-Feb-23 21:30N 33°46' W 118°13'0 0.0
2018-Feb-23 21:00N 33°46' W 118°13'0 0.9
2018-Feb-23 20:30N 33°46' W 118°13'4 8.4
2018-Feb-23 20:00N 33°42' W 118°11'0 0.6
2018-Feb-23 19:30N 33°42' W 118°11'2 4.1
2018-Feb-23 19:00N 33°44' W 118°10'4 8.7
2018-Feb-23 18:31N 33°43' W 118°15'3 4.9
2018-Feb-23 17:59N 33°45' W 118°16'0 0.5
2018-Feb-23 17:30N 33°45' W 118°16'1 2.8
2018-Feb-23 17:00N 33°44' W 118°16'0 0.0
2018-Feb-23 16:30N 33°44' W 118°16'0 0.0
2018-Feb-23 16:00N 33°44' W 118°16'0 0.0
2018-Feb-23 15:30N 33°44' W 118°16'0 0.0
2018-Feb-23 15:00N 33°44' W 118°16'0 0.0
2018-Feb-23 14:30N 33°44' W 118°16'0 0.0
2018-Feb-23 14:00N 33°44' W 118°16'2 4.4
2018-Feb-23 13:29N 33°45' W 118°13'2 1.0
2018-Feb-23 11:51N 33°43' W 118°12'3 9.6
2018-Feb-23 11:30N 33°43' W 118°16'1 1.3
2018-Feb-23 11:00N 33°44' W 118°16'0 0.0
2018-Feb-23 10:30N 33°44' W 118°16'0 0.0
2018-Feb-23 10:00N 33°44' W 118°16'0 0.0
2018-Feb-23 09:30N 33°44' W 118°16'0 0.0
2018-Feb-23 09:00N 33°44' W 118°16'0 0.0
2018-Feb-23 08:30N 33°44' W 118°16'0 0.0
2018-Feb-23 08:00N 33°44' W 118°16'0 0.0
2018-Feb-23 07:30N 33°44' W 118°16'0 0.0
2018-Feb-23 07:00N 33°44' W 118°16'0 0.0
2018-Feb-23 06:30N 33°44' W 118°16'0 0.0
2018-Feb-23 06:00N 33°44' W 118°16'0 0.0
2018-Feb-23 05:30N 33°44' W 118°16'0 0.0
2018-Feb-23 05:00N 33°44' W 118°16'0 0.5
2018-Feb-23 04:30N 33°44' W 118°16'2 4.2
2018-Feb-23 04:00N 33°46' W 118°16'1 1.9
2018-Feb-23 03:31N 33°45' W 118°16'1 1.2
2018-Feb-23 03:00N 33°45' W 118°17'0 0.8
2018-Feb-23 02:31N 33°45' W 118°16'1 2.6
2018-Feb-23 02:00N 33°44' W 118°16'0 0.0
2018-Feb-23 01:30N 33°44' W 118°16'0 0.0
2018-Feb-23 01:00N 33°44' W 118°16'0 0.0
2018-Feb-23 00:30N 33°44' W 118°16'0 0.0
2018-Feb-23 00:00N 33°44' W 118°16'0 0.0
2018-Feb-22 23:30N 33°44' W 118°16'0 0.0
2018-Feb-22 23:00N 33°44' W 118°16'0 0.0
2018-Feb-22 22:30N 33°44' W 118°16'0 0.0
2018-Feb-22 22:00N 33°44' W 118°16'0 0.0
2018-Feb-22 21:30N 33°44' W 118°16'0 0.0
2018-Feb-22 21:00N 33°44' W 118°16'0 0.0
2018-Feb-22 20:30N 33°44' W 118°16'0 0.0
2018-Feb-22 20:00N 33°44' W 118°16'0 0.0
2018-Feb-22 19:30N 33°44' W 118°16'0 0.0
2018-Feb-22 19:00N 33°44' W 118°16'0 0.0
2018-Feb-22 18:30N 33°44' W 118°16'0 0.0
2018-Feb-22 18:00N 33°44' W 118°16'0 0.0
2018-Feb-22 17:28N 33°44' W 118°16'0 0.0
2018-Feb-22 16:48N 33°44' W 118°16'0 0.0
2018-Feb-22 16:30N 33°44' W 118°16'0 1.0
2018-Feb-22 16:00N 33°43' W 118°16'3 6.0
2018-Feb-22 15:29N 33°45' W 118°13'1 1.5
2018-Feb-22 15:00N 33°45' W 118°13'3 5.9
2018-Feb-22 14:30N 33°44' W 118°16'1 2.2
2018-Feb-22 13:57N 33°45' W 118°16'1 1.5
2018-Feb-22 13:30N 33°46' W 118°17'0 1.0
2018-Feb-22 13:00N 33°45' W 118°17'2 4.5
2018-Feb-22 12:29N 33°43' W 118°16'1 1.7
2018-Feb-22 11:57N 33°43' W 118°15'1 2.7
2018-Feb-22 11:30N 33°44' W 118°16'0 0.0
2018-Feb-22 11:00N 33°44' W 118°16'0 0.0
2018-Feb-22 10:30N 33°44' W 118°16'0 0.0
2018-Feb-22 10:00N 33°44' W 118°16'0 0.0
2018-Feb-22 09:30N 33°44' W 118°16'0 0.0
2018-Feb-22 09:00N 33°44' W 118°16'0 0.0
2018-Feb-22 08:28N 33°44' W 118°16'0 0.0
2018-Feb-22 08:00N 33°44' W 118°16'0 0.0
2018-Feb-22 07:31N 33°44' W 118°16'0 0.0
2018-Feb-22 07:00N 33°44' W 118°16'0 0.0
2018-Feb-22 06:30N 33°44' W 118°16'0 0.0
2018-Feb-22 06:00N 33°44' W 118°16'0 0.0
2018-Feb-22 05:29N 33°44' W 118°16'0 0.0
2018-Feb-22 05:00N 33°44' W 118°16'0 0.0
2018-Feb-22 04:30N 33°44' W 118°16'0 0.0
2018-Feb-22 04:00N 33°44' W 118°16'0 0.0
2018-Feb-22 03:30N 33°44' W 118°16'0 0.0
2018-Feb-22 03:00N 33°44' W 118°16'0 0.0
2018-Feb-22 02:30N 33°44' W 118°16'0 0.0
2018-Feb-22 02:00N 33°44' W 118°16'0 0.0
2018-Feb-22 01:30N 33°44' W 118°16'0 0.0
2018-Feb-22 01:00N 33°44' W 118°16'0 0.0
2018-Feb-22 00:30N 33°44' W 118°16'0 0.0
2018-Feb-21 23:59N 33°44' W 118°16'0 0.0
2018-Feb-21 23:30N 33°44' W 118°16'0 0.0
2018-Feb-21 23:00N 33°44' W 118°16'0 0.1
2018-Feb-21 22:30N 33°44' W 118°16'1 2.6
2018-Feb-21 22:00N 33°45' W 118°16'1 2.6
2018-Feb-21 21:30N 33°46' W 118°15'0 0.0
2018-Feb-21 21:00N 33°46' W 118°15'0 0.0
2018-Feb-21 20:30N 33°46' W 118°15'0 0.0
2018-Feb-21 20:00N 33°46' W 118°15'0 0.0
2018-Feb-21 19:30N 33°46' W 118°15'1 2.1
2018-Feb-21 19:00N 33°46' W 118°14'1 2.0
2018-Feb-21 18:30N 33°45' W 118°13'3 5.3
2018-Feb-21 18:00N 33°43' W 118°11'1 2.6
2018-Feb-21 17:30N 33°44' W 118°12'1 2.3
2018-Feb-21 17:00N 33°45' W 118°13'0 0.0
2018-Feb-21 16:29N 33°45' W 118°13'0 0.0
2018-Feb-21 16:00N 33°45' W 118°13'1 3.0
2018-Feb-21 15:30N 33°46' W 118°14'1 1.7
2018-Feb-21 15:00N 33°46' W 118°15'1 1.5
2018-Feb-21 14:30N 33°46' W 118°16'0 0.6
2018-Feb-21 13:53N 33°45' W 118°16'0 0.0
2018-Feb-21 13:30N 33°45' W 118°16'0 0.0
2018-Feb-21 13:00N 33°45' W 118°16'0 0.0
2018-Feb-21 12:30N 33°45' W 118°16'0 0.0
2018-Feb-21 12:00N 33°45' W 118°16'0 0.0
2018-Feb-21 11:30N 33°45' W 118°16'1 2.8
2018-Feb-21 10:59N 33°44' W 118°16'0 0.0
2018-Feb-21 10:30N 33°44' W 118°16'0 0.0
2018-Feb-21 10:00N 33°44' W 118°16'0 0.0
2018-Feb-21 09:30N 33°44' W 118°16'0 0.0
2018-Feb-21 09:00N 33°44' W 118°16'0 0.0
2018-Feb-21 08:30N 33°44' W 118°16'0 0.0
2018-Feb-21 08:00N 33°44' W 118°16'0 0.0
2018-Feb-21 07:30N 33°44' W 118°16'0 0.0
2018-Feb-21 07:00N 33°44' W 118°16'0 0.0
2018-Feb-21 06:30N 33°44' W 118°16'0 0.0
2018-Feb-21 06:00N 33°44' W 118°16'0 0.0
2018-Feb-21 05:30N 33°44' W 118°16'0 0.0
2018-Feb-21 05:00N 33°44' W 118°16'0 0.0
2018-Feb-21 04:30N 33°44' W 118°16'1 2.2
2018-Feb-21 04:00N 33°45' W 118°16'0 1.0
2018-Feb-21 03:30N 33°45' W 118°16'0 0.3
2018-Feb-21 03:00N 33°45' W 118°16'2 3.3
2018-Feb-21 02:30N 33°43' W 118°16'1 2.6
2018-Feb-21 01:58N 33°43' W 118°15'1 3.0
2018-Feb-21 01:30N 33°44' W 118°16'0 0.0
2018-Feb-21 01:00N 33°44' W 118°16'1 1.2
2018-Feb-21 00:30N 33°44' W 118°16'2 3.8
2018-Feb-21 00:00N 33°46' W 118°15'1 2.4
2018-Feb-20 23:30N 33°45' W 118°16'3 5.4
2018-Feb-20 23:00N 33°42' W 118°15'2 3.2
2018-Feb-20 22:30N 33°44' W 118°16'0 0.5
2018-Feb-20 22:00N 33°44' W 118°16'2 3.7
2018-Feb-20 21:30N 33°45' W 118°16'0 0.1
2018-Feb-20 21:00N 33°45' W 118°16'2 4.0
2018-Feb-20 20:30N 33°44' W 118°16'2 4.8
2018-Feb-20 19:59N 33°44' W 118°13'0 0.0
2018-Feb-20 19:30N 33°44' W 118°13'0 0.1
2018-Feb-20 19:00N 33°43' W 118°13'0 0.0
2018-Feb-20 18:30N 33°43' W 118°13'0 0.0
2018-Feb-20 18:00N 33°43' W 118°13'0 0.0
2018-Feb-20 17:29N 33°43' W 118°13'0 0.0
2018-Feb-20 17:00N 33°43' W 118°13'1 2.4
2018-Feb-20 16:30N 33°44' W 118°12'1 1.2
2018-Feb-20 16:00N 33°44' W 118°12'1 1.9
2018-Feb-20 15:30N 33°45' W 118°12'1 1.1
2018-Feb-20 15:00N 33°44' W 118°12'2 3.6
2018-Feb-20 14:30N 33°45' W 118°14'1 3.0
2018-Feb-20 14:00N 33°45' W 118°13'1 2.0
2018-Feb-20 13:30N 33°45' W 118°14'0 0.3
2018-Feb-20 13:00N 33°45' W 118°14'1 1.0
2018-Feb-20 12:28N 33°45' W 118°15'0 0.1
2018-Feb-20 12:00N 33°45' W 118°15'1 2.9
2018-Feb-20 11:30N 33°44' W 118°13'2 4.0
2018-Feb-20 11:00N 33°44' W 118°16'0 0.0
2018-Feb-20 10:30N 33°44' W 118°16'0 0.0
2018-Feb-20 10:00N 33°44' W 118°16'0 0.0
2018-Feb-20 09:30N 33°44' W 118°16'0 0.0
2018-Feb-20 09:00N 33°44' W 118°16'0 0.0
2018-Feb-20 08:30N 33°44' W 118°16'0 0.0
2018-Feb-20 08:00N 33°44' W 118°16'0 0.0
2018-Feb-20 07:30N 33°44' W 118°16'0 0.0
2018-Feb-20 07:00N 33°44' W 118°16'0 0.0
2018-Feb-20 06:30N 33°44' W 118°16'0 0.0
2018-Feb-20 06:00N 33°44' W 118°16'0 0.0
2018-Feb-20 05:30N 33°44' W 118°16'3 4.7
2018-Feb-20 04:55N 33°46' W 118°13'1 1.8
2018-Feb-20 04:30N 33°46' W 118°14'3 1.7
2018-Feb-20 02:29N 33°44' W 118°11'4 8.2
2018-Feb-20 02:00N 33°43' W 118°16'2 3.3
2018-Feb-20 01:30N 33°45' W 118°16'1 2.5
2018-Feb-20 01:00N 33°46' W 118°16'1 1.9
2018-Feb-20 00:30N 33°45' W 118°16'2 3.6
2018-Feb-20 00:00N 33°43' W 118°16'1 2.8
2018-Feb-19 23:30N 33°43' W 118°15'1 2.4
2018-Feb-19 23:00N 33°44' W 118°15'0 0.1
2018-Feb-19 22:30N 33°44' W 118°15'2 3.4
2018-Feb-19 22:00N 33°42' W 118°14'2 3.8
2018-Feb-19 21:30N 33°44' W 118°16'0 0.0
2018-Feb-19 21:00N 33°44' W 118°16'0 0.4
2018-Feb-19 20:30N 33°44' W 118°16'2 4.1
2018-Feb-19 20:00N 33°46' W 118°16'1 1.0
2018-Feb-19 19:30N 33°46' W 118°15'0 0.0
2018-Feb-19 19:00N 33°46' W 118°15'0 0.0
2018-Feb-19 18:30N 33°46' W 118°15'0 0.0
2018-Feb-19 18:00N 33°46' W 118°15'0 0.0
2018-Feb-19 17:30N 33°46' W 118°15'0 0.0
2018-Feb-19 17:00N 33°46' W 118°15'0 0.0
2018-Feb-19 16:30N 33°46' W 118°15'0 0.1
2018-Feb-19 16:00N 33°46' W 118°15'3 5.1
2018-Feb-19 15:30N 33°44' W 118°16'2 4.6
2018-Feb-19 15:00N 33°44' W 118°13'1 2.1
2018-Feb-19 14:30N 33°45' W 118°13'0 0.4
2018-Feb-19 13:49N 33°45' W 118°13'2 5.6
2018-Feb-19 13:30N 33°46' W 118°14'0 0.6
2018-Feb-19 13:00N 33°46' W 118°15'0 0.0
2018-Feb-19 12:30N 33°46' W 118°15'1 2.0
2018-Feb-19 12:00N 33°46' W 118°16'0 0.6
2018-Feb-19 11:30N 33°46' W 118°16'2 3.7
2018-Feb-19 10:58N 33°44' W 118°16'0 0.0
2018-Feb-19 10:30N 33°44' W 118°16'0 0.0
2018-Feb-19 10:00N 33°44' W 118°16'0 0.0
2018-Feb-19 09:30N 33°44' W 118°16'0 0.0
2018-Feb-19 09:00N 33°44' W 118°16'0 0.0
2018-Feb-19 08:30N 33°44' W 118°16'0 0.0
2018-Feb-19 08:00N 33°44' W 118°16'0 0.0
2018-Feb-19 07:30N 33°44' W 118°16'0 0.0
2018-Feb-19 07:00N 33°44' W 118°16'0 0.0
2018-Feb-19 06:30N 33°44' W 118°16'0 0.0
2018-Feb-19 06:00N 33°44' W 118°16'0 0.0
2018-Feb-19 05:30N 33°44' W 118°16'0 0.0
2018-Feb-19 05:00N 33°44' W 118°16'0 0.0
2018-Feb-19 04:27N 33°44' W 118°16'0 0.0
2018-Feb-19 03:58N 33°44' W 118°16'0 0.0
2018-Feb-19 03:30N 33°44' W 118°16'0 0.0
2018-Feb-19 03:00N 33°44' W 118°16'0 0.0
2018-Feb-19 02:30N 33°44' W 118°16'0 0.0
2018-Feb-19 02:00N 33°44' W 118°16'0 0.0
2018-Feb-19 01:30N 33°44' W 118°16'0 0.0
2018-Feb-19 01:00N 33°44' W 118°16'0 0.0
2018-Feb-19 00:30N 33°44' W 118°16'0 0.0
2018-Feb-19 00:00N 33°44' W 118°16'0 0.0
2018-Feb-18 23:30N 33°44' W 118°16'0 0.0
2018-Feb-18 23:00N 33°44' W 118°16'0 0.0
2018-Feb-18 22:30N 33°44' W 118°16'0 0.0
2018-Feb-18 22:00N 33°44' W 118°16'0 0.0
2018-Feb-18 21:30N 33°44' W 118°16'0 0.0
2018-Feb-18 21:00N 33°44' W 118°16'0 0.0
2018-Feb-18 20:30N 33°44' W 118°16'0 0.0
2018-Feb-18 20:00N 33°44' W 118°16'0 0.0
2018-Feb-18 19:30N 33°44' W 118°16'0 0.0
2018-Feb-18 19:00N 33°44' W 118°16'0 0.0
2018-Feb-18 18:30N 33°44' W 118°16'1 1.3
2018-Feb-18 18:00N 33°43' W 118°16'2 3.9
2018-Feb-18 17:30N 33°43' W 118°13'2 4.8
2018-Feb-18 17:00N 33°44' W 118°11'1 2.3
2018-Feb-18 16:30N 33°44' W 118°12'3 6.5
2018-Feb-18 16:00N 33°44' W 118°16'1 1.6
2018-Feb-18 15:30N 33°43' W 118°16'1 1.1
2018-Feb-18 15:00N 33°43' W 118°15'1 2.3
2018-Feb-18 14:30N 33°44' W 118°16'0 0.1
2018-Feb-18 14:00N 33°44' W 118°16'2 4.2
2018-Feb-18 13:30N 33°46' W 118°17'1 1.3
2018-Feb-18 13:00N 33°45' W 118°16'3 5.1
2018-Feb-18 12:30N 33°43' W 118°15'0 0.8
2018-Feb-18 11:56N 33°43' W 118°15'1 3.1
2018-Feb-18 11:30N 33°44' W 118°16'0 0.0
2018-Feb-18 11:00N 33°44' W 118°16'0 0.0
2018-Feb-18 10:30N 33°44' W 118°16'0 0.0
2018-Feb-18 09:59N 33°44' W 118°16'0 0.0
2018-Feb-18 09:30N 33°44' W 118°16'0 0.0
2018-Feb-18 09:00N 33°44' W 118°16'0 0.0
2018-Feb-18 08:28N 33°44' W 118°16'0 0.0
2018-Feb-18 08:00N 33°44' W 118°16'0 0.0
2018-Feb-18 07:30N 33°44' W 118°16'0 0.0
2018-Feb-18 07:00N 33°44' W 118°16'0 0.0
2018-Feb-18 06:30N 33°44' W 118°16'0 0.0
2018-Feb-18 06:00N 33°44' W 118°16'0 0.0
2018-Feb-18 05:30N 33°44' W 118°16'0 0.0
2018-Feb-18 05:00N 33°44' W 118°16'0 0.0
2018-Feb-18 04:30N 33°44' W 118°16'0 0.0
2018-Feb-18 04:00N 33°44' W 118°16'0 0.0
2018-Feb-18 03:30N 33°44' W 118°16'1 2.4
2018-Feb-18 03:00N 33°45' W 118°16'1 2.0
2018-Feb-18 02:30N 33°46' W 118°16'0 0.1
2018-Feb-18 02:00N 33°46' W 118°16'2 3.6
2018-Feb-18 01:30N 33°44' W 118°17'1 1.4
2018-Feb-18 01:00N 33°44' W 118°16'0 0.0
2018-Feb-18 00:30N 33°44' W 118°16'0 0.0
2018-Feb-17 23:59N 33°44' W 118°16'0 0.0
2018-Feb-17 23:30N 33°44' W 118°16'0 0.0
2018-Feb-17 23:00N 33°44' W 118°16'0 0.2
2018-Feb-17 22:30N 33°44' W 118°16'2 4.5
2018-Feb-17 22:00N 33°43' W 118°13'2 4.8
2018-Feb-17 21:30N 33°45' W 118°11'0 0.0
2018-Feb-17 20:23N 33°45' W 118°11'0 0.0
2018-Feb-17 20:00N 33°45' W 118°11'0 0.0
2018-Feb-17 18:44N 33°45' W 118°11'1 5.2
2018-Feb-17 18:30N 33°44' W 118°11'1 2.9
2018-Feb-17 18:00N 33°45' W 118°12'0 0.9
2018-Feb-17 17:30N 33°45' W 118°13'0 0.1
2018-Feb-17 17:00N 33°45' W 118°13'0 0.0
2018-Feb-17 16:30N 33°45' W 118°13'0 0.0
2018-Feb-17 15:59N 33°45' W 118°13'2 3.6
2018-Feb-17 15:31N 33°44' W 118°11'1 1.0
2018-Feb-17 15:00N 33°45' W 118°11'3 6.1
2018-Feb-17 14:30N 33°43' W 118°14'2 3.1
2018-Feb-17 13:59N 33°44' W 118°16'0 0.0
2018-Feb-17 13:27N 33°44' W 118°16'0 0.0
2018-Feb-17 13:00N 33°44' W 118°16'0 0.0
2018-Feb-17 12:30N 33°44' W 118°16'0 0.0
2018-Feb-17 12:00N 33°44' W 118°16'0 0.0
2018-Feb-17 11:30N 33°44' W 118°16'0 0.0
2018-Feb-17 11:00N 33°44' W 118°16'0 0.0
2018-Feb-17 10:30N 33°44' W 118°16'0 0.0
2018-Feb-17 10:00N 33°44' W 118°16'0 0.0
2018-Feb-17 09:30N 33°44' W 118°16'0 0.0
2018-Feb-17 09:00N 33°44' W 118°16'0 0.0
2018-Feb-17 08:30N 33°44' W 118°16'0 0.0
2018-Feb-17 08:00N 33°44' W 118°16'0 0.0
2018-Feb-17 07:30N 33°44' W 118°16'0 0.0
2018-Feb-17 07:00N 33°44' W 118°16'0 0.0
2018-Feb-17 06:30N 33°44' W 118°16'0 0.0
2018-Feb-17 06:00N 33°44' W 118°16'0 0.0
2018-Feb-17 05:29N 33°44' W 118°16'0 0.0
2018-Feb-17 05:00N 33°44' W 118°16'0 0.0
2018-Feb-17 04:30N 33°44' W 118°16'0 0.0
2018-Feb-17 04:00N 33°44' W 118°16'0 0.0
2018-Feb-17 03:30N 33°44' W 118°16'0 0.0
2018-Feb-17 03:00N 33°44' W 118°16'0 0.0
2018-Feb-17 02:30N 33°44' W 118°16'0 0.0
2018-Feb-17 02:00N 33°44' W 118°16'0 0.0
2018-Feb-17 01:30N 33°44' W 118°16'0 0.0
2018-Feb-17 01:00N 33°44' W 118°16'0 0.0
2018-Feb-17 00:30N 33°44' W 118°16'0 0.0
2018-Feb-17 00:00N 33°44' W 118°16'0 0.0
2018-Feb-16 23:30N 33°44' W 118°16'0 0.0
2018-Feb-16 23:00N 33°44' W 118°16'0 0.0
2018-Feb-16 22:30N 33°44' W 118°16'0 0.0
2018-Feb-16 22:00N 33°44' W 118°16'0 0.0
2018-Feb-16 21:30N 33°44' W 118°16'0 0.0
2018-Feb-16 21:00N 33°44' W 118°16'0 0.0
2018-Feb-16 20:30N 33°44' W 118°16'0 0.0
2018-Feb-16 20:00N 33°44' W 118°16'0 0.0
2018-Feb-16 19:30N 33°44' W 118°16'0 0.3
2018-Feb-16 19:00N 33°44' W 118°16'5 9.1
2018-Feb-16 18:30N 33°43' W 118°10'4 7.9
2018-Feb-16 18:00N 33°44' W 118°06'0 0.2
2018-Feb-16 17:30N 33°44' W 118°06'2 3.3
2018-Feb-16 17:00N 33°44' W 118°08'5 9.4
2018-Feb-16 16:30N 33°43' W 118°13'3 5.6
2018-Feb-16 16:00N 33°44' W 118°16'0 0.0
2018-Feb-16 15:30N 33°44' W 118°16'2 3.7
2018-Feb-16 15:00N 33°43' W 118°14'3 6.2
2018-Feb-16 14:30N 33°46' W 118°13'0 0.3
2018-Feb-16 14:00N 33°46' W 118°13'2 3.6
2018-Feb-16 13:30N 33°44' W 118°12'1 0.9
2018-Feb-16 12:48N 33°43' W 118°11'2 4.5
2018-Feb-16 12:24N 33°43' W 118°14'2 4.8
2018-Feb-16 12:00N 33°44' W 118°16'0 0.0
2018-Feb-16 11:30N 33°44' W 118°16'0 0.0
2018-Feb-16 11:00N 33°44' W 118°16'0 0.0
2018-Feb-16 10:30N 33°44' W 118°16'0 0.0
2018-Feb-16 10:00N 33°44' W 118°16'0 0.0
2018-Feb-16 09:30N 33°44' W 118°16'0 0.0
2018-Feb-16 09:00N 33°44' W 118°16'0 0.0
2018-Feb-16 08:30N 33°44' W 118°16'0 0.0
2018-Feb-16 08:00N 33°44' W 118°16'0 0.0
2018-Feb-16 07:30N 33°44' W 118°16'0 0.0
2018-Feb-16 07:00N 33°44' W 118°16'0 0.0
2018-Feb-16 06:30N 33°44' W 118°16'0 0.0
2018-Feb-16 06:00N 33°44' W 118°16'0 0.0
2018-Feb-16 05:30N 33°44' W 118°16'0 0.0
2018-Feb-16 05:00N 33°44' W 118°16'0 0.0
2018-Feb-16 04:30N 33°44' W 118°16'0 0.0
2018-Feb-16 04:00N 33°44' W 118°16'0 0.0
2018-Feb-16 03:30N 33°44' W 118°16'0 0.0
2018-Feb-16 03:00N 33°44' W 118°16'0 0.0
2018-Feb-16 02:30N 33°44' W 118°16'0 0.0
2018-Feb-16 02:00N 33°44' W 118°16'0 0.0
2018-Feb-16 01:30N 33°44' W 118°16'0 0.0
2018-Feb-16 01:00N 33°44' W 118°16'0 0.0
2018-Feb-16 00:30N 33°44' W 118°16'0 0.0
2018-Feb-16 00:00N 33°44' W 118°16'0 0.0
2018-Feb-15 23:30N 33°44' W 118°16'0 0.0
2018-Feb-15 23:00N 33°44' W 118°16'0 0.0
2018-Feb-15 22:30N 33°44' W 118°16'0 0.0
2018-Feb-15 22:00N 33°44' W 118°16'0 0.0
2018-Feb-15 21:30N 33°44' W 118°16'0 0.0
2018-Feb-15 21:00N 33°44' W 118°16'0 0.0
2018-Feb-15 20:30N 33°44' W 118°16'0 0.0
2018-Feb-15 20:00N 33°44' W 118°16'0 0.0
2018-Feb-15 19:30N 33°44' W 118°16'0 0.0
2018-Feb-15 19:00N 33°44' W 118°16'0 0.0
2018-Feb-15 18:30N 33°44' W 118°16'0 0.0
2018-Feb-15 18:00N 33°44' W 118°16'0 0.0
2018-Feb-15 17:30N 33°44' W 118°16'0 0.0
2018-Feb-15 17:00N 33°44' W 118°16'0 0.0
2018-Feb-15 16:30N 33°44' W 118°16'0 0.0
2018-Feb-15 16:00N 33°44' W 118°16'0 0.0
2018-Feb-15 15:30N 33°44' W 118°16'0 0.0
2018-Feb-15 15:00N 33°44' W 118°16'0 0.0
2018-Feb-15 14:30N 33°44' W 118°16'0 0.0
2018-Feb-15 14:00N 33°44' W 118°16'0 0.0
2018-Feb-15 13:30N 33°44' W 118°16'0 0.0
2018-Feb-15 13:00N 33°44' W 118°16'0 0.0
2018-Feb-15 12:30N 33°44' W 118°16'0 0.0
2018-Feb-15 12:00N 33°44' W 118°16'0 0.0
2018-Feb-15 11:30N 33°44' W 118°16'  
Track history (hours):
 
Tides and Currents Weather Stations Pressure Air Temp Water Temp Dewpoint Dewpoint Depression Visibility Wind Speed Wind Dir Waves Ship Positions

John Quigg

Owner: Harley Marine Services, Inc, Seattle, WA. More information available from US FCC via Universal Licensing System and Coast Guard Vessel Documentation Center.

Last reported at 2018-Feb-25 11:30 UTC. Time now 2018-Feb-25 11:34 UTC.
Position N 33°44' W 118°16'.

Length 27 m.

MMSI: 365934954.

Date/timePositionNaut miles runAvg speedWind from/ knotsBaromVisibWave heightAir tempDewpointWater temp
2018-Feb-25 11:30N 33°44' W 118°16'0 0.0
2018-Feb-25 11:00N 33°44' W 118°16'0 0.0
2018-Feb-25 10:30N 33°44' W 118°16'0 0.0
2018-Feb-25 10:00N 33°44' W 118°16'0 0.0
2018-Feb-25 09:30N 33°44' W 118°16'0 0.0
2018-Feb-25 09:00N 33°44' W 118°16'0 0.0
2018-Feb-25 08:30N 33°44' W 118°16'0 0.0
2018-Feb-25 08:00N 33°44' W 118°16'0 0.0
2018-Feb-25 07:30N 33°44' W 118°16'0 0.0
2018-Feb-25 07:00N 33°44' W 118°16'0 0.0
2018-Feb-25 06:30N 33°44' W 118°16'0 0.0
2018-Feb-25 06:00N 33°44' W 118°16'0 0.0
2018-Feb-25 05:30N 33°44' W 118°16'0 0.0
2018-Feb-25 05:00N 33°44' W 118°16'0 0.0
2018-Feb-25 04:30N 33°44' W 118°16'0 0.0
2018-Feb-25 04:00N 33°44' W 118°16'0 0.0
2018-Feb-25 03:30N 33°44' W 118°16'0 0.0
2018-Feb-25 03:00N 33°44' W 118°16'0 0.0
2018-Feb-25 02:30N 33°44' W 118°16'0 0.0
2018-Feb-25 02:00N 33°44' W 118°16'0 0.0
2018-Feb-25 01:30N 33°44' W 118°16'0 0.0
2018-Feb-25 01:00N 33°44' W 118°16'0 0.0
2018-Feb-25 00:30N 33°44' W 118°16'0 0.0
2018-Feb-25 00:00N 33°44' W 118°16'0 0.0
2018-Feb-24 23:30N 33°44' W 118°16'0 0.0
2018-Feb-24 23:00N 33°44' W 118°16'0 0.0
2018-Feb-24 22:30N 33°44' W 118°16'0 0.0
2018-Feb-24 22:00N 33°44' W 118°16'0 0.0
2018-Feb-24 21:30N 33°44' W 118°16'0 0.0
2018-Feb-24 21:00N 33°44' W 118°16'0 0.0
2018-Feb-24 20:30N 33°44' W 118°16'0 0.0
2018-Feb-24 20:00N 33°44' W 118°16'0 0.0
2018-Feb-24 19:30N 33°44' W 118°16'0 0.0
2018-Feb-24 19:00N 33°44' W 118°16'0 0.0
2018-Feb-24 18:30N 33°44' W 118°16'1 3.0
2018-Feb-24 18:00N 33°43' W 118°14'4 7.8
2018-Feb-24 17:30N 33°44' W 118°10'2 5.0
2018-Feb-24 17:00N 33°43' W 118°13'3 5.4
2018-Feb-24 16:30N 33°44' W 118°16'0 0.4
2018-Feb-24 16:00N 33°44' W 118°16'2 3.6
2018-Feb-24 15:30N 33°45' W 118°16'1 2.7
2018-Feb-24 15:00N 33°46' W 118°14'0 0.5
2018-Feb-24 14:30N 33°46' W 118°14'2 3.0
2018-Feb-24 13:41N 33°44' W 118°12'1 7.9
2018-Feb-24 13:29N 33°45' W 118°13'1 1.1
2018-Feb-24 12:50N 33°46' W 118°13'0 0.1
2018-Feb-24 12:29N 33°46' W 118°13'0 0.1
2018-Feb-24 11:50N 33°46' W 118°13'3 7.2
2018-Feb-24 11:25N 33°43' W 118°14'2 3.8
2018-Feb-24 11:00N 33°44' W 118°16'0 0.0
2018-Feb-24 10:30N 33°44' W 118°16'0 0.0
2018-Feb-24 10:00N 33°44' W 118°16'0 0.0
2018-Feb-24 09:30N 33°44' W 118°16'0 0.0
2018-Feb-24 09:00N 33°44' W 118°16'0 0.0
2018-Feb-24 08:30N 33°44' W 118°16'0 0.0
2018-Feb-24 08:00N 33°44' W 118°16'0 0.0
2018-Feb-24 07:30N 33°44' W 118°16'0 0.0
2018-Feb-24 07:00N 33°44' W 118°16'0 0.0
2018-Feb-24 06:30N 33°44' W 118°16'0 0.0
2018-Feb-24 06:00N 33°44' W 118°16'0 0.0
2018-Feb-24 05:30N 33°44' W 118°16'0 0.0
2018-Feb-24 05:00N 33°44' W 118°16'0 0.0
2018-Feb-24 04:30N 33°44' W 118°16'0 0.0
2018-Feb-24 04:00N 33°44' W 118°16'0 0.0
2018-Feb-24 03:30N 33°44' W 118°16'0 0.0
2018-Feb-24 03:00N 33°44' W 118°16'4 3.7
2018-Feb-24 02:02N 33°44' W 118°11'0 0.6
2018-Feb-24 01:57N 33°44' W 118°12'1 1.3
2018-Feb-24 01:30N 33°44' W 118°11'4 8.1
2018-Feb-24 01:01N 33°44' W 118°16'0 0.2
2018-Feb-24 00:30N 33°44' W 118°16'0 0.0
2018-Feb-24 00:00N 33°44' W 118°16'0 0.0
2018-Feb-23 23:30N 33°44' W 118°16'1 1.6
2018-Feb-23 23:00N 33°43' W 118°16'5 9.4
2018-Feb-23 22:30N 33°44' W 118°10'1 2.6
2018-Feb-23 22:00N 33°44' W 118°12'3 5.7
2018-Feb-23 21:30N 33°46' W 118°13'0 0.0
2018-Feb-23 21:00N 33°46' W 118°13'0 0.9
2018-Feb-23 20:30N 33°46' W 118°13'4 8.4
2018-Feb-23 20:00N 33°42' W 118°11'0 0.6
2018-Feb-23 19:30N 33°42' W 118°11'2 4.1
2018-Feb-23 19:00N 33°44' W 118°10'4 8.7
2018-Feb-23 18:31N 33°43' W 118°15'3 4.9
2018-Feb-23 17:59N 33°45' W 118°16'0 0.5
2018-Feb-23 17:30N 33°45' W 118°16'1 2.8
2018-Feb-23 17:00N 33°44' W 118°16'0 0.0
2018-Feb-23 16:30N 33°44' W 118°16'0 0.0
2018-Feb-23 16:00N 33°44' W 118°16'0 0.0
2018-Feb-23 15:30N 33°44' W 118°16'0 0.0
2018-Feb-23 15:00N 33°44' W 118°16'0 0.0
2018-Feb-23 14:30N 33°44' W 118°16'0 0.0
2018-Feb-23 14:00N 33°44' W 118°16'2 4.4
2018-Feb-23 13:29N 33°45' W 118°13'2 1.0
2018-Feb-23 11:51N 33°43' W 118°12'3 9.6
2018-Feb-23 11:30N 33°43' W 118°16'1 1.3
2018-Feb-23 11:00N 33°44' W 118°16'0 0.0
2018-Feb-23 10:30N 33°44' W 118°16'0 0.0
2018-Feb-23 10:00N 33°44' W 118°16'0 0.0
2018-Feb-23 09:30N 33°44' W 118°16'0 0.0
2018-Feb-23 09:00N 33°44' W 118°16'0 0.0
2018-Feb-23 08:30N 33°44' W 118°16'0 0.0
2018-Feb-23 08:00N 33°44' W 118°16'0 0.0
2018-Feb-23 07:30N 33°44' W 118°16'0 0.0
2018-Feb-23 07:00N 33°44' W 118°16'0 0.0
2018-Feb-23 06:30N 33°44' W 118°16'0 0.0
2018-Feb-23 06:00N 33°44' W 118°16'0 0.0
2018-Feb-23 05:30N 33°44' W 118°16'0 0.0
2018-Feb-23 05:00N 33°44' W 118°16'0 0.5
2018-Feb-23 04:30N 33°44' W 118°16'2 4.2
2018-Feb-23 04:00N 33°46' W 118°16'1 1.9
2018-Feb-23 03:31N 33°45' W 118°16'1 1.2
2018-Feb-23 03:00N 33°45' W 118°17'0 0.8
2018-Feb-23 02:31N 33°45' W 118°16'1 2.6
2018-Feb-23 02:00N 33°44' W 118°16'0 0.0
2018-Feb-23 01:30N 33°44' W 118°16'0 0.0
2018-Feb-23 01:00N 33°44' W 118°16'0 0.0
2018-Feb-23 00:30N 33°44' W 118°16'0 0.0
2018-Feb-23 00:00N 33°44' W 118°16'0 0.0
2018-Feb-22 23:30N 33°44' W 118°16'0 0.0
2018-Feb-22 23:00N 33°44' W 118°16'0 0.0
2018-Feb-22 22:30N 33°44' W 118°16'0 0.0
2018-Feb-22 22:00N 33°44' W 118°16'0 0.0
2018-Feb-22 21:30N 33°44' W 118°16'0 0.0
2018-Feb-22 21:00N 33°44' W 118°16'0 0.0
2018-Feb-22 20:30N 33°44' W 118°16'0 0.0
2018-Feb-22 20:00N 33°44' W 118°16'0 0.0
2018-Feb-22 19:30N 33°44' W 118°16'0 0.0
2018-Feb-22 19:00N 33°44' W 118°16'0 0.0
2018-Feb-22 18:30N 33°44' W 118°16'0 0.0
2018-Feb-22 18:00N 33°44' W 118°16'0 0.0
2018-Feb-22 17:28N 33°44' W 118°16'0 0.0
2018-Feb-22 16:48N 33°44' W 118°16'0 0.0
2018-Feb-22 16:30N 33°44' W 118°16'0 1.0
2018-Feb-22 16:00N 33°43' W 118°16'3 6.0
2018-Feb-22 15:29N 33°45' W 118°13'1 1.5
2018-Feb-22 15:00N 33°45' W 118°13'3 5.9
2018-Feb-22 14:30N 33°44' W 118°16'1 2.2
2018-Feb-22 13:57N 33°45' W 118°16'1 1.5
2018-Feb-22 13:30N 33°46' W 118°17'0 1.0
2018-Feb-22 13:00N 33°45' W 118°17'2 4.5
2018-Feb-22 12:29N 33°43' W 118°16'1 1.7
2018-Feb-22 11:57N 33°43' W 118°15'1 2.7
2018-Feb-22 11:30N 33°44' W 118°16'0 0.0
2018-Feb-22 11:00N 33°44' W 118°16'0 0.0
2018-Feb-22 10:30N 33°44' W 118°16'0 0.0
2018-Feb-22 10:00N 33°44' W 118°16'0 0.0
2018-Feb-22 09:30N 33°44' W 118°16'0 0.0
2018-Feb-22 09:00N 33°44' W 118°16'0 0.0
2018-Feb-22 08:28N 33°44' W 118°16'0 0.0
2018-Feb-22 08:00N 33°44' W 118°16'0 0.0
2018-Feb-22 07:31N 33°44' W 118°16'0 0.0
2018-Feb-22 07:00N 33°44' W 118°16'0 0.0
2018-Feb-22 06:30N 33°44' W 118°16'0 0.0
2018-Feb-22 06:00N 33°44' W 118°16'0 0.0
2018-Feb-22 05:29N 33°44' W 118°16'0 0.0
2018-Feb-22 05:00N 33°44' W 118°16'0 0.0
2018-Feb-22 04:30N 33°44' W 118°16'0 0.0
2018-Feb-22 04:00N 33°44' W 118°16'0 0.0
2018-Feb-22 03:30N 33°44' W 118°16'0 0.0
2018-Feb-22 03:00N 33°44' W 118°16'0 0.0
2018-Feb-22 02:30N 33°44' W 118°16'0 0.0
2018-Feb-22 02:00N 33°44' W 118°16'0 0.0
2018-Feb-22 01:30N 33°44' W 118°16'0 0.0
2018-Feb-22 01:00N 33°44' W 118°16'0 0.0
2018-Feb-22 00:30N 33°44' W 118°16'0 0.0
2018-Feb-21 23:59N 33°44' W 118°16'0 0.0
2018-Feb-21 23:30N 33°44' W 118°16'0 0.0
2018-Feb-21 23:00N 33°44' W 118°16'0 0.1
2018-Feb-21 22:30N 33°44' W 118°16'1 2.6
2018-Feb-21 22:00N 33°45' W 118°16'1 2.6
2018-Feb-21 21:30N 33°46' W 118°15'0 0.0
2018-Feb-21 21:00N 33°46' W 118°15'0 0.0
2018-Feb-21 20:30N 33°46' W 118°15'0 0.0
2018-Feb-21 20:00N 33°46' W 118°15'0 0.0
2018-Feb-21 19:30N 33°46' W 118°15'1 2.1
2018-Feb-21 19:00N 33°46' W 118°14'1 2.0
2018-Feb-21 18:30N 33°45' W 118°13'3 5.3
2018-Feb-21 18:00N 33°43' W 118°11'1 2.6
2018-Feb-21 17:30N 33°44' W 118°12'1 2.3
2018-Feb-21 17:00N 33°45' W 118°13'0 0.0
2018-Feb-21 16:29N 33°45' W 118°13'0 0.0
2018-Feb-21 16:00N 33°45' W 118°13'1 3.0
2018-Feb-21 15:30N 33°46' W 118°14'1 1.7
2018-Feb-21 15:00N 33°46' W 118°15'1 1.5
2018-Feb-21 14:30N 33°46' W 118°16'0 0.6
2018-Feb-21 13:53N 33°45' W 118°16'0 0.0
2018-Feb-21 13:30N 33°45' W 118°16'0 0.0
2018-Feb-21 13:00N 33°45' W 118°16'0 0.0
2018-Feb-21 12:30N 33°45' W 118°16'0 0.0
2018-Feb-21 12:00N 33°45' W 118°16'0 0.0
2018-Feb-21 11:30N 33°45' W 118°16'1 2.8
2018-Feb-21 10:59N 33°44' W 118°16'0 0.0
2018-Feb-21 10:30N 33°44' W 118°16'0 0.0
2018-Feb-21 10:00N 33°44' W 118°16'0 0.0
2018-Feb-21 09:30N 33°44' W 118°16'0 0.0
2018-Feb-21 09:00N 33°44' W 118°16'0 0.0
2018-Feb-21 08:30N 33°44' W 118°16'0 0.0
2018-Feb-21 08:00N 33°44' W 118°16'0 0.0
2018-Feb-21 07:30N 33°44' W 118°16'0 0.0
2018-Feb-21 07:00N 33°44' W 118°16'0 0.0
2018-Feb-21 06:30N 33°44' W 118°16'0 0.0
2018-Feb-21 06:00N 33°44' W 118°16'0 0.0
2018-Feb-21 05:30N 33°44' W 118°16'0 0.0
2018-Feb-21 05:00N 33°44' W 118°16'0 0.0
2018-Feb-21 04:30N 33°44' W 118°16'1 2.2
2018-Feb-21 04:00N 33°45' W 118°16'0 1.0
2018-Feb-21 03:30N 33°45' W 118°16'0 0.3
2018-Feb-21 03:00N 33°45' W 118°16'2 3.3
2018-Feb-21 02:30N 33°43' W 118°16'1 2.6
2018-Feb-21 01:58N 33°43' W 118°15'1 3.0
2018-Feb-21 01:30N 33°44' W 118°16'0 0.0
2018-Feb-21 01:00N 33°44' W 118°16'1 1.2
2018-Feb-21 00:30N 33°44' W 118°16'2 3.8
2018-Feb-21 00:00N 33°46' W 118°15'1 2.4
2018-Feb-20 23:30N 33°45' W 118°16'3 5.4
2018-Feb-20 23:00N 33°42' W 118°15'2 3.2
2018-Feb-20 22:30N 33°44' W 118°16'0 0.5
2018-Feb-20 22:00N 33°44' W 118°16'2 3.7
2018-Feb-20 21:30N 33°45' W 118°16'0 0.1
2018-Feb-20 21:00N 33°45' W 118°16'2 4.0
2018-Feb-20 20:30N 33°44' W 118°16'2 4.8
2018-Feb-20 19:59N 33°44' W 118°13'0 0.0
2018-Feb-20 19:30N 33°44' W 118°13'0 0.1
2018-Feb-20 19:00N 33°43' W 118°13'0 0.0
2018-Feb-20 18:30N 33°43' W 118°13'0 0.0
2018-Feb-20 18:00N 33°43' W 118°13'0 0.0
2018-Feb-20 17:29N 33°43' W 118°13'0 0.0
2018-Feb-20 17:00N 33°43' W 118°13'1 2.4
2018-Feb-20 16:30N 33°44' W 118°12'1 1.2
2018-Feb-20 16:00N 33°44' W 118°12'1 1.9
2018-Feb-20 15:30N 33°45' W 118°12'1 1.1
2018-Feb-20 15:00N 33°44' W 118°12'2 3.6
2018-Feb-20 14:30N 33°45' W 118°14'1 3.0
2018-Feb-20 14:00N 33°45' W 118°13'1 2.0
2018-Feb-20 13:30N 33°45' W 118°14'0 0.3
2018-Feb-20 13:00N 33°45' W 118°14'1 1.0
2018-Feb-20 12:28N 33°45' W 118°15'0 0.1
2018-Feb-20 12:00N 33°45' W 118°15'1 2.9
2018-Feb-20 11:30N 33°44' W 118°13'2 4.0
2018-Feb-20 11:00N 33°44' W 118°16'0 0.0
2018-Feb-20 10:30N 33°44' W 118°16'0 0.0
2018-Feb-20 10:00N 33°44' W 118°16'0 0.0
2018-Feb-20 09:30N 33°44' W 118°16'0 0.0
2018-Feb-20 09:00N 33°44' W 118°16'0 0.0
2018-Feb-20 08:30N 33°44' W 118°16'0 0.0
2018-Feb-20 08:00N 33°44' W 118°16'0 0.0
2018-Feb-20 07:30N 33°44' W 118°16'0 0.0
2018-Feb-20 07:00N 33°44' W 118°16'0 0.0
2018-Feb-20 06:30N 33°44' W 118°16'0 0.0
2018-Feb-20 06:00N 33°44' W 118°16'0 0.0
2018-Feb-20 05:30N 33°44' W 118°16'3 4.7
2018-Feb-20 04:55N 33°46' W 118°13'1 1.8
2018-Feb-20 04:30N 33°46' W 118°14'3 1.7
2018-Feb-20 02:29N 33°44' W 118°11'4 8.2
2018-Feb-20 02:00N 33°43' W 118°16'2 3.3
2018-Feb-20 01:30N 33°45' W 118°16'1 2.5
2018-Feb-20 01:00N 33°46' W 118°16'1 1.9
2018-Feb-20 00:30N 33°45' W 118°16'2 3.6
2018-Feb-20 00:00N 33°43' W 118°16'1 2.8
2018-Feb-19 23:30N 33°43' W 118°15'1 2.4
2018-Feb-19 23:00N 33°44' W 118°15'0 0.1
2018-Feb-19 22:30N 33°44' W 118°15'2 3.4
2018-Feb-19 22:00N 33°42' W 118°14'2 3.8
2018-Feb-19 21:30N 33°44' W 118°16'0 0.0
2018-Feb-19 21:00N 33°44' W 118°16'0 0.4
2018-Feb-19 20:30N 33°44' W 118°16'2 4.1
2018-Feb-19 20:00N 33°46' W 118°16'1 1.0
2018-Feb-19 19:30N 33°46' W 118°15'0 0.0
2018-Feb-19 19:00N 33°46' W 118°15'0 0.0
2018-Feb-19 18:30N 33°46' W 118°15'0 0.0
2018-Feb-19 18:00N 33°46' W 118°15'0 0.0
2018-Feb-19 17:30N 33°46' W 118°15'0 0.0
2018-Feb-19 17:00N 33°46' W 118°15'0 0.0
2018-Feb-19 16:30N 33°46' W 118°15'0 0.1
2018-Feb-19 16:00N 33°46' W 118°15'3 5.1
2018-Feb-19 15:30N 33°44' W 118°16'2 4.6
2018-Feb-19 15:00N 33°44' W 118°13'1 2.1
2018-Feb-19 14:30N 33°45' W 118°13'0 0.4
2018-Feb-19 13:49N 33°45' W 118°13'2 5.6
2018-Feb-19 13:30N 33°46' W 118°14'0 0.6
2018-Feb-19 13:00N 33°46' W 118°15'0 0.0
2018-Feb-19 12:30N 33°46' W 118°15'1 2.0
2018-Feb-19 12:00N 33°46' W 118°16'0 0.6
2018-Feb-19 11:30N 33°46' W 118°16'2 3.7
2018-Feb-19 10:58N 33°44' W 118°16'0 0.0
2018-Feb-19 10:30N 33°44' W 118°16'0 0.0
2018-Feb-19 10:00N 33°44' W 118°16'0 0.0
2018-Feb-19 09:30N 33°44' W 118°16'0 0.0
2018-Feb-19 09:00N 33°44' W 118°16'0 0.0
2018-Feb-19 08:30N 33°44' W 118°16'0 0.0
2018-Feb-19 08:00N 33°44' W 118°16'0 0.0
2018-Feb-19 07:30N 33°44' W 118°16'0 0.0
2018-Feb-19 07:00N 33°44' W 118°16'0 0.0
2018-Feb-19 06:30N 33°44' W 118°16'0 0.0
2018-Feb-19 06:00N 33°44' W 118°16'0 0.0
2018-Feb-19 05:30N 33°44' W 118°16'0 0.0
2018-Feb-19 05:00N 33°44' W 118°16'0 0.0
2018-Feb-19 04:27N 33°44' W 118°16'0 0.0
2018-Feb-19 03:58N 33°44' W 118°16'0 0.0
2018-Feb-19 03:30N 33°44' W 118°16'0 0.0
2018-Feb-19 03:00N 33°44' W 118°16'0 0.0
2018-Feb-19 02:30N 33°44' W 118°16'0 0.0
2018-Feb-19 02:00N 33°44' W 118°16'0 0.0
2018-Feb-19 01:30N 33°44' W 118°16'0 0.0
2018-Feb-19 01:00N 33°44' W 118°16'0 0.0
2018-Feb-19 00:30N 33°44' W 118°16'0 0.0
2018-Feb-19 00:00N 33°44' W 118°16'0 0.0
2018-Feb-18 23:30N 33°44' W 118°16'0 0.0
2018-Feb-18 23:00N 33°44' W 118°16'0 0.0
2018-Feb-18 22:30N 33°44' W 118°16'0 0.0
2018-Feb-18 22:00N 33°44' W 118°16'0 0.0
2018-Feb-18 21:30N 33°44' W 118°16'0 0.0
2018-Feb-18 21:00N 33°44' W 118°16'0 0.0
2018-Feb-18 20:30N 33°44' W 118°16'0 0.0
2018-Feb-18 20:00N 33°44' W 118°16'0 0.0
2018-Feb-18 19:30N 33°44' W 118°16'0 0.0
2018-Feb-18 19:00N 33°44' W 118°16'0 0.0
2018-Feb-18 18:30N 33°44' W 118°16'1 1.3
2018-Feb-18 18:00N 33°43' W 118°16'2 3.9
2018-Feb-18 17:30N 33°43' W 118°13'2 4.8
2018-Feb-18 17:00N 33°44' W 118°11'1 2.3
2018-Feb-18 16:30N 33°44' W 118°12'3 6.5
2018-Feb-18 16:00N 33°44' W 118°16'1 1.6
2018-Feb-18 15:30N 33°43' W 118°16'1 1.1
2018-Feb-18 15:00N 33°43' W 118°15'1 2.3
2018-Feb-18 14:30N 33°44' W 118°16'0 0.1
2018-Feb-18 14:00N 33°44' W 118°16'2 4.2
2018-Feb-18 13:30N 33°46' W 118°17'1 1.3
2018-Feb-18 13:00N 33°45' W 118°16'3 5.1
2018-Feb-18 12:30N 33°43' W 118°15'0 0.8
2018-Feb-18 11:56N 33°43' W 118°15'1 3.1
2018-Feb-18 11:30N 33°44' W 118°16'0 0.0
2018-Feb-18 11:00N 33°44' W 118°16'0 0.0
2018-Feb-18 10:30N 33°44' W 118°16'0 0.0
2018-Feb-18 09:59N 33°44' W 118°16'0 0.0
2018-Feb-18 09:30N 33°44' W 118°16'0 0.0
2018-Feb-18 09:00N 33°44' W 118°16'0 0.0
2018-Feb-18 08:28N 33°44' W 118°16'0 0.0
2018-Feb-18 08:00N 33°44' W 118°16'0 0.0
2018-Feb-18 07:30N 33°44' W 118°16'0 0.0
2018-Feb-18 07:00N 33°44' W 118°16'0 0.0
2018-Feb-18 06:30N 33°44' W 118°16'0 0.0
2018-Feb-18 06:00N 33°44' W 118°16'0 0.0
2018-Feb-18 05:30N 33°44' W 118°16'0 0.0
2018-Feb-18 05:00N 33°44' W 118°16'0 0.0
2018-Feb-18 04:30N 33°44' W 118°16'0 0.0
2018-Feb-18 04:00N 33°44' W 118°16'0 0.0
2018-Feb-18 03:30N 33°44' W 118°16'1 2.4
2018-Feb-18 03:00N 33°45' W 118°16'1 2.0
2018-Feb-18 02:30N 33°46' W 118°16'0 0.1
2018-Feb-18 02:00N 33°46' W 118°16'2 3.6
2018-Feb-18 01:30N 33°44' W 118°17'1 1.4
2018-Feb-18 01:00N 33°44' W 118°16'0 0.0
2018-Feb-18 00:30N 33°44' W 118°16'0 0.0
2018-Feb-17 23:59N 33°44' W 118°16'0 0.0
2018-Feb-17 23:30N 33°44' W 118°16'0 0.0
2018-Feb-17 23:00N 33°44' W 118°16'0 0.2
2018-Feb-17 22:30N 33°44' W 118°16'2 4.5
2018-Feb-17 22:00N 33°43' W 118°13'2 4.8
2018-Feb-17 21:30N 33°45' W 118°11'0 0.0
2018-Feb-17 20:23N 33°45' W 118°11'0 0.0
2018-Feb-17 20:00N 33°45' W 118°11'0 0.0
2018-Feb-17 18:44N 33°45' W 118°11'1 5.2
2018-Feb-17 18:30N 33°44' W 118°11'1 2.9
2018-Feb-17 18:00N 33°45' W 118°12'0 0.9
2018-Feb-17 17:30N 33°45' W 118°13'0 0.1
2018-Feb-17 17:00N 33°45' W 118°13'0 0.0
2018-Feb-17 16:30N 33°45' W 118°13'0 0.0
2018-Feb-17 15:59N 33°45' W 118°13'2 3.6
2018-Feb-17 15:31N 33°44' W 118°11'1 1.0
2018-Feb-17 15:00N 33°45' W 118°11'3 6.1
2018-Feb-17 14:30N 33°43' W 118°14'2 3.1
2018-Feb-17 13:59N 33°44' W 118°16'0 0.0
2018-Feb-17 13:27N 33°44' W 118°16'0 0.0
2018-Feb-17 13:00N 33°44' W 118°16'0 0.0
2018-Feb-17 12:30N 33°44' W 118°16'0 0.0
2018-Feb-17 12:00N 33°44' W 118°16'0 0.0
2018-Feb-17 11:30N 33°44' W 118°16'0 0.0
2018-Feb-17 11:00N 33°44' W 118°16'0 0.0
2018-Feb-17 10:30N 33°44' W 118°16'0 0.0
2018-Feb-17 10:00N 33°44' W 118°16'0 0.0
2018-Feb-17 09:30N 33°44' W 118°16'0 0.0
2018-Feb-17 09:00N 33°44' W 118°16'0 0.0
2018-Feb-17 08:30N 33°44' W 118°16'0 0.0
2018-Feb-17 08:00N 33°44' W 118°16'0 0.0
2018-Feb-17 07:30N 33°44' W 118°16'0 0.0
2018-Feb-17 07:00N 33°44' W 118°16'0 0.0
2018-Feb-17 06:30N 33°44' W 118°16'0 0.0
2018-Feb-17 06:00N 33°44' W 118°16'0 0.0
2018-Feb-17 05:29N 33°44' W 118°16'0 0.0
2018-Feb-17 05:00N 33°44' W 118°16'0 0.0
2018-Feb-17 04:30N 33°44' W 118°16'0 0.0
2018-Feb-17 04:00N 33°44' W 118°16'0 0.0
2018-Feb-17 03:30N 33°44' W 118°16'0 0.0
2018-Feb-17 03:00N 33°44' W 118°16'0 0.0
2018-Feb-17 02:30N 33°44' W 118°16'0 0.0
2018-Feb-17 02:00N 33°44' W 118°16'0 0.0
2018-Feb-17 01:30N 33°44' W 118°16'0 0.0
2018-Feb-17 01:00N 33°44' W 118°16'0 0.0
2018-Feb-17 00:30N 33°44' W 118°16'0 0.0
2018-Feb-17 00:00N 33°44' W 118°16'0 0.0
2018-Feb-16 23:30N 33°44' W 118°16'0 0.0
2018-Feb-16 23:00N 33°44' W 118°16'0 0.0
2018-Feb-16 22:30N 33°44' W 118°16'0 0.0
2018-Feb-16 22:00N 33°44' W 118°16'0 0.0
2018-Feb-16 21:30N 33°44' W 118°16'0 0.0
2018-Feb-16 21:00N 33°44' W 118°16'0 0.0
2018-Feb-16 20:30N 33°44' W 118°16'0 0.0
2018-Feb-16 20:00N 33°44' W 118°16'0 0.0
2018-Feb-16 19:30N 33°44' W 118°16'0 0.3
2018-Feb-16 19:00N 33°44' W 118°16'5 9.1
2018-Feb-16 18:30N 33°43' W 118°10'4 7.9
2018-Feb-16 18:00N 33°44' W 118°06'0 0.2
2018-Feb-16 17:30N 33°44' W 118°06'2 3.3
2018-Feb-16 17:00N 33°44' W 118°08'5 9.4
2018-Feb-16 16:30N 33°43' W 118°13'3 5.6
2018-Feb-16 16:00N 33°44' W 118°16'0 0.0
2018-Feb-16 15:30N 33°44' W 118°16'2 3.7
2018-Feb-16 15:00N 33°43' W 118°14'3 6.2
2018-Feb-16 14:30N 33°46' W 118°13'0 0.3
2018-Feb-16 14:00N 33°46' W 118°13'2 3.6
2018-Feb-16 13:30N 33°44' W 118°12'1 0.9
2018-Feb-16 12:48N 33°43' W 118°11'2 4.5
2018-Feb-16 12:24N 33°43' W 118°14'2 4.8
2018-Feb-16 12:00N 33°44' W 118°16'0 0.0
2018-Feb-16 11:30N 33°44' W 118°16'0 0.0
2018-Feb-16 11:00N 33°44' W 118°16'0 0.0
2018-Feb-16 10:30N 33°44' W 118°16'0 0.0
2018-Feb-16 10:00N 33°44' W 118°16'0 0.0
2018-Feb-16 09:30N 33°44' W 118°16'0 0.0
2018-Feb-16 09:00N 33°44' W 118°16'0 0.0
2018-Feb-16 08:30N 33°44' W 118°16'0 0.0
2018-Feb-16 08:00N 33°44' W 118°16'0 0.0
2018-Feb-16 07:30N 33°44' W 118°16'0 0.0
2018-Feb-16 07:00N 33°44' W 118°16'0 0.0
2018-Feb-16 06:30N 33°44' W 118°16'0 0.0
2018-Feb-16 06:00N 33°44' W 118°16'0 0.0
2018-Feb-16 05:30N 33°44' W 118°16'0 0.0
2018-Feb-16 05:00N 33°44' W 118°16'0 0.0
2018-Feb-16 04:30N 33°44' W 118°16'0 0.0
2018-Feb-16 04:00N 33°44' W 118°16'0 0.0
2018-Feb-16 03:30N 33°44' W 118°16'0 0.0
2018-Feb-16 03:00N 33°44' W 118°16'0 0.0
2018-Feb-16 02:30N 33°44' W 118°16'0 0.0
2018-Feb-16 02:00N 33°44' W 118°16'0 0.0
2018-Feb-16 01:30N 33°44' W 118°16'0 0.0
2018-Feb-16 01:00N 33°44' W 118°16'0 0.0
2018-Feb-16 00:30N 33°44' W 118°16'0 0.0
2018-Feb-16 00:00N 33°44' W 118°16'0 0.0
2018-Feb-15 23:30N 33°44' W 118°16'0 0.0
2018-Feb-15 23:00N 33°44' W 118°16'0 0.0
2018-Feb-15 22:30N 33°44' W 118°16'0 0.0
2018-Feb-15 22:00N 33°44' W 118°16'0 0.0
2018-Feb-15 21:30N 33°44' W 118°16'0 0.0
2018-Feb-15 21:00N 33°44' W 118°16'0 0.0
2018-Feb-15 20:30N 33°44' W 118°16'0 0.0
2018-Feb-15 20:00N 33°44' W 118°16'0 0.0
2018-Feb-15 19:30N 33°44' W 118°16'0 0.0
2018-Feb-15 19:00N 33°44' W 118°16'0 0.0
2018-Feb-15 18:30N 33°44' W 118°16'0 0.0
2018-Feb-15 18:00N 33°44' W 118°16'0 0.0
2018-Feb-15 17:30N 33°44' W 118°16'0 0.0
2018-Feb-15 17:00N 33°44' W 118°16'0 0.0
2018-Feb-15 16:30N 33°44' W 118°16'0 0.0
2018-Feb-15 16:00N 33°44' W 118°16'0 0.0
2018-Feb-15 15:30N 33°44' W 118°16'0 0.0
2018-Feb-15 15:00N 33°44' W 118°16'0 0.0
2018-Feb-15 14:30N 33°44' W 118°16'0 0.0
2018-Feb-15 14:00N 33°44' W 118°16'0 0.0
2018-Feb-15 13:30N 33°44' W 118°16'0 0.0
2018-Feb-15 13:00N 33°44' W 118°16'0 0.0
2018-Feb-15 12:30N 33°44' W 118°16'0 0.0
2018-Feb-15 12:00N 33°44' W 118°16'0 0.0
2018-Feb-15 11:30N 33°44' W 118°16'  

Dump ship's entire track history